ADDS METAR Data INFO
IDs: Format: Raw Decoded Include TAF

Data at: 2022 UTC 20 Jul 2018

KEHR 201956Z AUTO 23010G18KT 10SM CLR 31/25 A2980 RMK AO2 SLP093 T03110250
KEHR 201856Z AUTO 22011G17KT 10SM CLR 31/25 A2982 RMK AO2 LTG DSNT SW SLP101 T03110250
KEHR 201756Z AUTO 24009G15KT 10SM FEW028 31/25 A2985 RMK AO2 SLP111 T03110250 10311 20233 56009
KEHR 201656Z AUTO 22013G19KT 10SM FEW022 29/24 A2987 RMK AO2 LTG DSNT S SLP117 T02940244
KEHR 201613Z AUTO 20008KT 10SM SCT015 29/25 A2985 RMK AO2
KEHR 201556Z AUTO 20009G15KT 10SM OVC015 29/25 A2986 RMK AO2 SLP114 T02890250
KEHR 201456Z AUTO 22010G16KT 10SM OVC017 28/24 A2988 RMK AO2 SLP121 T02780244 58001
KEHR 201440Z AUTO 23010KT 10SM BKN015 28/24 A2988 RMK AO2
KEHR 201356Z AUTO 22007KT 10SM FEW030 27/24 A2988 RMK AO2 SLP123 T02670239
KEHR 201256Z AUTO 21007KT 10SM CLR 25/23 A2988 RMK AO2 SLP123 T02500228
KEHR 201156Z AUTO 20004KT 10SM CLR 23/22 A2988 RMK AO2 SLP122 T02330222 10233 20206 53005
KEHR 201056Z AUTO 19003KT 10SM CLR 22/21 A2986 RMK AO2 SLP117 T02170211
KEHR 200956Z AUTO 16003KT 10SM CLR 22/20 A2985 RMK AO2 SLP114 T02170200
KEHR 200856Z AUTO 00000KT 10SM CLR 21/20 A2986 RMK AO2 SLP117 T02110200 56008
KEHR 200756Z AUTO 10SM CLR 22/20 A2987 RMK AO2 LTG DSNT N AND NE SLP120 T02170200
KEHR 200656Z AUTO 10SM CLR 22/20 A2988 RMK AO2 SLP122 T02220200
KEHR 200556Z AUTO 10SM CLR 23/20 A2989 RMK AO2 SLP124 T02330200 10283 20233 403060161 58002
KEHR 200456Z AUTO 20004KT 10SM CLR 24/21 A2990 RMK AO2 SLP129 T02390211
KEHR 200356Z AUTO 00000KT 10SM SCT055 25/21 A2989 RMK AO2 SLP125 T02500206
KEHR 200256Z AUTO 14004KT 10SM CLR 25/21 A2989 RMK AO2 SLP127 T02500211 53006
KEHR 200156Z AUTO 13005KT 10SM CLR 26/22 A2987 RMK AO2 SLP119 T02610217
KEHR 200056Z AUTO 13004KT 10SM CLR 27/22 A2988 RMK AO2 SLP123 T02720217
KEHR 192356Z AUTO 10SM CLR 28/22 A2988 RMK AO2 SLP122 T02830217 10306 20283 58011
KEHR 192256Z AUTO 11003KT 10SM FEW070 29/22 A2990 RMK AO2 SLP129 T02890222
KEHR 192156Z AUTO 15004KT 10SM SCT075 29/21 A2991 RMK AO2 SLP134 T02940211
KEHR 192056Z AUTO 00000KT 10SM CLR 30/21 A2991 RMK AO2 SLP134 T03000206 58017
KEHR 191956Z AUTO 22004KT 10SM CLR 29/21 A2994 RMK AO2 SLP143 T02940206
KEHR 191856Z AUTO 23003KT 10SM CLR 30/20 A2995 RMK AO2 SLP146 T03000200
KEHR 191756Z AUTO 13004KT 10SM CLR 29/21 A2996 RMK AO2 SLP150 T02940206 10294 20189 58007
KEHR 191656Z AUTO 15003KT 10SM CLR 28/19 A2998 RMK AO2 SLP156 T02830194
KEHR 191556Z AUTO 14004KT 10SM CLR 27/19 A2998 RMK AO2 SLP157 T02720194
KEHR 191456Z AUTO 09004KT 10SM CLR 26/19 A2998 RMK AO2 SLP158 T02560189 58002
KEHR 191356Z AUTO 10003KT 10SM CLR 24/18 A2999 RMK AO2 SLP162 T02390183
KEHR 191256Z AUTO 09004KT 10SM CLR 23/18 A2999 RMK AO2 SLP161 T02280178
KEHR 191156Z AUTO 00000KT 10SM CLR 19/18 A2999 RMK AO2 SLP160 T01890183 10189 20161 53004
KEHR 191056Z AUTO 00000KT 10SM CLR 17/16 A2998 RMK AO2 SLP158 T01670161
KEHR 190956Z AUTO 00000KT 10SM CLR 16/16 A2998 RMK AO2 SLP156 T01610161
KEHR 190856Z AUTO 00000KT 10SM CLR 17/16 A2998 RMK AO2 SLP157 T01670161 56006
KEHR 190846Z AUTO 00000KT 4SM BR CLR 17/16 A2998 RMK AO2
KEHR 190836Z AUTO 00000KT 1 3/4SM BR CLR 17/16 A2998 RMK AO2